Time;durP1;ratioP1;P1;durP2;ratioP2;P2;SDS_P1;SDS_P2;PMS_P1;PMS_P2;Temp;Humidity;BMP_temperature;BMP_pressure;BME280_temperature;BME280_humidity;BME280_pressure;Samples;Min_cycle;Max_cycle;Signal;HPM_P1;HPM_P2
2023/03/17 00:01:09;;;;;;;3.40;3.10;;;;;;;7.39;70.24;100845.44;6218323;23;20478;-75
2023/03/17 00:03:39;;;;;;;5.97;3.53;;;;;;;7.36;70.21;100849.66;6220083;22;20017;-75
2023/03/17 00:06:16;;;;;;;3.28;2.97;;;;;;;7.32;70.35;100849.75;6220383;22;20104;-75
2023/03/17 00:08:45;;;;;;;3.67;3.38;;;;;;;7.29;70.63;100829.38;6221297;23;20108;-74
2023/03/17 00:11:14;;;;;;;3.20;2.97;;;;;;;7.27;70.42;100823.03;6220301;22;20017;-74
2023/03/17 00:13:43;;;;;;;5.90;3.20;;;;;;;7.23;70.52;100836.34;6219503;23;20017;-75
2023/03/17 00:16:15;;;;;;;7.70;3.17;;;;;;;7.21;70.33;100851.16;6219308;22;20028;-74
2023/03/17 00:18:43;;;;;;;4.53;3.35;;;;;;;7.17;70.63;100848.59;6220416;22;20440;-74
2023/03/17 00:21:15;;;;;;;3.25;2.95;;;;;;;7.16;70.62;100857.72;6219242;22;20068;-75
2023/03/17 00:23:49;;;;;;;3.83;2.88;;;;;;;7.13;70.91;100844.53;6219976;22;20028;-75
2023/03/17 00:26:17;;;;;;;3.17;2.92;;;;;;;7.11;71.08;100838.91;6218800;22;20027;-75
2023/03/17 00:28:44;;;;;;;3.88;3.00;;;;;;;7.10;70.97;100837.44;6217558;23;20017;-75
2023/03/17 00:31:29;;;;;;;3.30;3.03;;;;;;;7.08;70.83;100831.78;6219123;23;20091;-75
2023/03/17 00:33:57;;;;;;;3.60;3.30;;;;;;;7.06;71.38;100829.56;6218170;23;20072;-75
2023/03/17 00:36:27;;;;;;;4.10;3.15;;;;;;;7.05;71.29;100825.44;6219339;22;20447;-74
2023/03/17 00:38:54;;;;;;;4.32;3.15;;;;;;;7.03;71.32;100828.47;6219288;23;20425;-75
2023/03/17 00:41:23;;;;;;;3.17;2.88;;;;;;;7.02;71.36;100828.88;6216680;23;20140;-75
2023/03/17 00:43:50;;;;;;;3.40;3.20;;;;;;;7.01;71.38;100824.75;6218548;22;20052;-75
2023/03/17 00:46:23;;;;;;;4.43;3.10;;;;;;;6.98;71.56;100823.69;6216491;23;20032;-74
2023/03/17 00:48:49;;;;;;;3.63;3.28;;;;;;;6.97;71.28;100818.78;6219193;22;20398;-74
2023/03/17 00:51:16;;;;;;;3.60;3.30;;;;;;;6.96;71.32;100825.25;6218360;22;20013;-74
2023/03/17 00:53:42;;;;;;;3.70;2.95;;;;;;;6.93;71.55;100826.06;6218827;23;20076;-74
2023/03/17 00:56:13;;;;;;;3.42;2.97;;;;;;;6.90;71.63;100824.25;6216402;23;20091;-74
2023/03/17 00:58:40;;;;;;;3.78;3.47;;;;;;;6.88;71.70;100831.84;6217077;23;20463;-74
2023/03/17 01:01:07;;;;;;;4.05;2.90;;;;;;;6.86;71.82;100826.97;6218836;22;20135;-75
2023/03/17 01:03:35;;;;;;;3.63;3.20;;;;;;;6.83;71.83;100817.19;6218926;22;20439;-75
2023/03/17 01:06:03;;;;;;;3.53;3.03;;;;;;;6.80;72.04;100804.06;6218882;22;20021;-74
2023/03/17 01:08:30;;;;;;;4.60;3.60;;;;;;;6.77;71.88;100797.69;6216569;23;20024;-74
2023/03/17 01:10:58;;;;;;;3.38;3.15;;;;;;;6.75;72.15;100786.78;6217300;23;20021;-75
2023/03/17 01:13:24;;;;;;;3.10;2.80;;;;;;;6.74;72.15;100789.84;6217567;23;20499;-75
2023/03/17 01:15:54;;;;;;;4.25;3.35;;;;;;;6.72;72.53;100782.31;6219100;22;20017;-75
2023/03/17 01:18:21;;;;;;;3.28;3.08;;;;;;;6.72;72.39;100787.59;6218378;22;20163;-75
2023/03/17 01:20:49;;;;;;;3.28;2.97;;;;;;;6.71;72.58;100801.97;6217353;23;20017;-75
2023/03/17 01:23:16;;;;;;;3.67;3.35;;;;;;;6.73;72.24;100809.50;6218717;22;20017;-75
2023/03/17 01:25:44;;;;;;;4.65;3.47;;;;;;;6.72;72.24;100802.72;6194093;23;20021;-75
2023/03/17 01:28:15;;;;;;;4.43;3.40;;;;;;;6.72;72.27;100797.44;6220201;23;20017;-75
2023/03/17 01:30:44;;;;;;;3.75;3.45;;;;;;;6.70;72.47;100800.50;6221616;22;20040;-74
2023/03/17 01:33:11;;;;;;;3.63;3.42;;;;;;;6.69;72.58;100801.66;6219921;22;20021;-75
2023/03/17 01:35:40;;;;;;;3.80;3.22;;;;;;;6.65;72.34;100793.78;6220822;22;20017;-75
2023/03/17 01:38:07;;;;;;;3.72;3.20;;;;;;;6.66;72.49;100797.91;6220560;22;20013;-75
2023/03/17 01:40:46;;;;;;;4.13;3.00;;;;;;;6.65;72.47;100796.44;6220166;22;20024;-75
2023/03/17 01:43:26;;;;;;;4.90;3.30;;;;;;;6.64;72.42;100788.91;6217986;23;20088;-74
2023/03/17 01:46:21;;;;;;;3.22;2.92;;;;;;;6.61;72.35;100782.53;6218466;23;20478;-74
2023/03/17 01:49:13;;;;;;;2.75;2.55;;;;;;;6.58;72.68;100779.97;6218779;23;20429;-74
2023/03/17 01:51:59;;;;;;;;;;;;;;;6.54;72.35;100782.69;6219637;23;20781;-75
2023/03/17 01:54:36;;;;;;;8.27;3.00;;;;;;;6.50;72.75;100789.19;6217801;23;19920;-74
2023/03/17 01:57:30;;;;;;;7.55;3.20;;;;;;;6.48;72.48;100791.50;6219659;22;20029;-74
2023/03/17 02:00:09;;;;;;;3.92;3.00;;;;;;;6.44;72.79;100785.53;6218608;23;20053;-75
2023/03/17 02:02:44;;;;;;;3.60;3.30;;;;;;;6.40;72.75;100767.09;6218654;23;20076;-75
2023/03/17 02:05:16;;;;;;;3.72;3.42;;;;;;;6.36;73.02;100769.09;6217435;23;20025;-75
2023/03/17 02:07:44;;;;;;;4.53;2.85;;;;;;;6.34;72.91;100761.56;6220069;22;20105;-75
2023/03/17 02:10:13;;;;;;;4.07;3.60;;;;;;;6.30;72.97;100752.97;6218456;23;20017;-75
2023/03/17 02:12:41;;;;;;;5.68;3.10;;;;;;;6.29;72.86;100754.13;6219999;22;20013;-75
2023/03/17 02:15:09;;;;;;;3.35;3.05;;;;;;;6.29;72.85;100748.81;6217764;23;20017;-74
2023/03/17 02:17:37;;;;;;;3.05;2.85;;;;;;;6.29;72.91;100754.13;6220104;22;20100;-74
2023/03/17 02:20:15;;;;;;;3.78;3.08;;;;;;;6.28;72.61;100749.22;6219965;22;20095;-75
2023/03/17 02:22:44;;;;;;;5.72;3.00;;;;;;;6.24;72.79;100751.94;6220323;22;20447;-75
2023/03/17 02:25:13;;;;;;;3.35;3.13;;;;;;;6.21;72.86;100750.13;6218492;23;20036;-76
2023/03/17 02:27:46;;;;;;;4.45;3.42;;;;;;;6.18;73.17;100753.56;6219979;22;20100;-75
2023/03/17 02:30:18;;;;;;;3.22;2.85;;;;;;;6.17;73.19;100753.97;6219263;22;20017;-74
2023/03/17 02:32:44;;;;;;;2.97;2.67;;;;;;;6.14;73.12;100746.88;6218414;23;20103;-74
2023/03/17 02:35:12;;;;;;;5.47;2.97;;;;;;;6.12;73.38;100744.63;6216840;23;20021;-74
2023/03/17 02:37:42;;;;;;;3.78;3.13;;;;;;;6.10;73.32;100743.53;6217765;23;20028;-74
2023/03/17 02:40:10;;;;;;;2.70;2.50;;;;;;;6.07;73.57;100747.75;6218624;22;20024;-74
2023/03/17 02:42:38;;;;;;;3.92;3.08;;;;;;;6.08;73.54;100749.25;6219868;23;20027;-75
2023/03/17 02:45:06;;;;;;;3.58;3.28;;;;;;;6.08;73.55;100740.56;6217871;23;20100;-75
2023/03/17 02:47:33;;;;;;;4.15;3.00;;;;;;;6.09;73.46;100734.13;6217328;23;20032;-74
2023/03/17 02:50:00;;;;;;;4.50;2.83;;;;;;;6.09;73.63;100736.78;6219777;22;20452;-74
2023/03/17 02:52:27;;;;;;;3.75;2.70;;;;;;;6.08;73.84;100736.03;6217226;23;20024;-75
2023/03/17 02:54:53;;;;;;;3.22;2.95;;;;;;;6.06;73.69;100730.41;6219429;22;20044;-75
2023/03/17 02:57:20;;;;;;;3.00;2.70;;;;;;;6.07;73.70;100731.91;6218874;23;20021;-75
2023/03/17 02:59:46;;;;;;;9.23;2.60;;;;;;;6.08;73.63;100743.97;6219821;22;20466;-74
2023/03/17 03:02:13;;;;;;;3.20;2.80;;;;;;;6.08;73.82;100749.25;6219119;22;20101;-74
2023/03/17 03:04:40;;;;;;;4.70;2.90;;;;;;;6.08;73.67;100753.78;6219777;22;20404;-74
2023/03/17 03:07:07;;;;;;;2.53;2.33;;;;;;;6.07;73.55;100753.03;6219230;22;20529;-74
2023/03/17 03:09:34;;;;;;;5.45;3.05;;;;;;;6.06;73.97;100751.53;6219414;22;20013;-75
2023/03/17 03:12:01;;;;;;;3.03;2.78;;;;;;;6.06;74.23;100748.91;6219823;22;20479;-75
2023/03/17 03:14:27;;;;;;;4.05;3.00;;;;;;;6.06;74.04;100745.50;6219096;22;20430;-75
2023/03/17 03:16:54;;;;;;;3.00;2.70;;;;;;;6.06;74.15;100738.31;6218234;23;20017;-75
2023/03/17 03:19:21;;;;;;;3.65;2.78;;;;;;;6.05;74.16;100736.84;6218938;22;20046;-75
2023/03/17 03:21:48;;;;;;;4.07;2.75;;;;;;;6.05;74.28;100736.84;6219267;22;20494;-75
2023/03/17 03:24:14;;;;;;;5.28;2.95;;;;;;;6.06;73.56;100734.94;6216961;23;20447;-75
2023/03/17 03:26:41;;;;;;;3.00;2.80;;;;;;;6.08;73.86;100728.09;6219700;22;20025;-75
2023/03/17 03:29:08;;;;;;;3.13;2.80;;;;;;;6.11;73.92;100737.84;6219087;22;20013;-75
2023/03/17 03:31:34;;;;;;;4.20;2.92;;;;;;;6.13;74.18;100750.66;6219915;22;20017;-75
2023/03/17 03:34:01;;;;;;;3.83;2.67;;;;;;;6.14;73.95;100747.63;6219398;23;20017;-75
2023/03/17 03:36:27;;;;;;;2.78;2.13;;;;;;;6.17;73.55;100748.69;6218156;23;20023;-74
2023/03/17 03:38:54;;;;;;;4.20;2.42;;;;;;;6.20;73.68;100742.59;6219610;23;20013;-75
2023/03/17 03:41:20;;;;;;;3.88;2.60;;;;;;;6.22;73.36;100742.94;6218827;22;20447;-74
2023/03/17 03:43:47;;;;;;;3.53;2.40;;;;;;;6.25;73.49;100750.78;6217723;23;20032;-74
2023/03/17 03:46:14;;;;;;;2.42;2.22;;;;;;;6.28;72.92;100755.28;6218539;22;20017;-74
2023/03/17 03:48:41;;;;;;;2.90;2.50;;;;;;;6.29;72.81;100759.41;6219613;22;20013;-74
2023/03/17 03:51:07;;;;;;;3.83;2.58;;;;;;;6.32;72.72;100749.91;6217076;23;20092;-74
2023/03/17 03:53:34;;;;;;;3.38;2.70;;;;;;;6.35;72.64;100747.19;6219598;23;20015;-74
2023/03/17 03:56:00;;;;;;;2.97;2.78;;;;;;;6.38;72.55;100748.28;6219781;22;20048;-75
2023/03/17 03:58:27;;;;;;;2.60;2.40;;;;;;;6.42;72.34;100748.16;6219132;22;20013;-75
2023/03/17 04:00:54;;;;;;;2.53;2.28;;;;;;;6.47;72.34;100750.34;6219753;23;20017;-74
2023/03/17 04:03:20;;;;;;;3.20;2.67;;;;;;;6.49;72.07;100754.06;6218887;22;20021;-75
2023/03/17 04:05:47;;;;;;;2.78;2.42;;;;;;;6.54;71.88;100742.25;6218916;23;20032;-75
2023/03/17 04:08:13;;;;;;;3.08;2.20;;;;;;;6.54;71.60;100743.00;6218679;22;20013;-75
2023/03/17 04:10:41;;;;;;;2.70;2.50;;;;;;;6.60;71.17;100753.84;6219487;23;20017;-75
2023/03/17 04:13:07;;;;;;;4.75;2.60;;;;;;;6.59;71.26;100750.44;6217201;23;20020;-75
2023/03/17 04:15:34;;;;;;;2.42;2.30;;;;;;;6.60;71.13;100757.22;6219548;23;20021;-75
2023/03/17 04:18:01;;;;;;;2.65;2.35;;;;;;;6.62;71.30;100756.81;6217989;23;20013;-75
2023/03/17 04:20:27;;;;;;;2.78;2.45;;;;;;;6.65;70.92;100763.94;6218091;22;20410;-75
2023/03/17 04:22:55;;;;;;;2.38;2.17;;;;;;;6.63;71.23;100767.00;6217728;23;20076;-74
2023/03/17 04:25:21;;;;;;;7.43;2.28;;;;;;;6.63;71.02;100764.34;6218415;22;20092;-74
2023/03/17 04:27:48;;;;;;;3.25;2.63;;;;;;;6.66;70.81;100755.59;6217944;23;20017;-74
2023/03/17 04:30:15;;;;;;;2.70;2.50;;;;;;;6.67;70.74;100765.00;6218734;22;20013;-74
2023/03/17 04:32:43;;;;;;;2.55;2.35;;;;;;;6.68;70.49;100761.22;6219524;22;20013;-74
2023/03/17 04:35:15;;;;;;;2.40;2.20;;;;;;;6.69;70.69;100761.97;6217930;23;20021;-74
2023/03/17 04:37:42;;;;;;;5.72;2.67;;;;;;;6.68;70.82;100749.88;6217841;23;20016;-74
2023/03/17 04:40:11;;;;;;;3.05;2.60;;;;;;;6.68;70.79;100755.19;6218515;22;20021;-75
2023/03/17 04:42:38;;;;;;;3.03;2.30;;;;;;;6.68;70.83;100755.94;6219252;22;20028;-75
2023/03/17 04:45:05;;;;;;;3.97;2.42;;;;;;;6.73;70.53;100767.91;6217369;23;20025;-75
2023/03/17 04:47:32;;;;;;;4.63;2.72;;;;;;;6.74;70.50;100760.72;6218609;22;20013;-74
2023/03/17 04:50:00;;;;;;;2.42;2.22;;;;;;;6.75;70.42;100770.91;6218737;23;20017;-74
2023/03/17 04:52:27;;;;;;;2.65;2.45;;;;;;;6.76;70.57;100772.38;6218300;22;20013;-75
2023/03/17 04:54:53;;;;;;;2.70;2.50;;;;;;;6.76;70.63;100761.81;6217275;23;20491;-74
2023/03/17 04:57:21;;;;;;;2.92;2.60;;;;;;;6.76;70.66;100756.53;6218268;22;20021;-74
2023/03/17 04:59:47;;;;;;;3.65;2.58;;;;;;;6.77;70.39;100759.91;6218890;23;20013;-74
2023/03/17 05:02:14;;;;;;;2.75;2.50;;;;;;;6.77;70.56;100768.59;6218177;23;20024;-74
2023/03/17 05:04:41;;;;;;;4.40;2.45;;;;;;;6.77;70.45;100751.97;6218450;22;20452;-75
2023/03/17 05:07:07;;;;;;;2.58;2.38;;;;;;;6.79;70.29;100755.69;6218669;23;20470;-75
2023/03/17 05:09:34;;;;;;;4.35;2.40;;;;;;;6.80;70.32;100773.03;6219260;22;20463;-74
2023/03/17 05:12:00;;;;;;;2.38;2.13;;;;;;;6.79;70.21;100768.19;6219079;22;20024;-74
2023/03/17 05:14:27;;;;;;;2.30;2.13;;;;;;;6.80;70.45;100769.66;6218426;22;20017;-75
2023/03/17 05:16:53;;;;;;;4.13;2.60;;;;;;;6.81;70.21;100771.13;6219231;23;20013;-74
2023/03/17 05:19:20;;;;;;;4.78;2.70;;;;;;;6.81;70.23;100773.78;6217941;22;20044;-74
2023/03/17 05:21:47;;;;;;;3.10;2.53;;;;;;;6.81;70.15;100771.88;6219185;22;20020;-74
2023/03/17 05:24:13;;;;;;;4.10;2.20;;;;;;;6.84;70.13;100762.38;6218239;23;20092;-74
2023/03/17 05:26:40;;;;;;;2.30;2.20;;;;;;;6.84;69.98;100752.53;6218791;22;20017;-75
2023/03/17 05:29:07;;;;;;;3.20;2.47;;;;;;;6.84;69.95;100757.06;6218563;23;20017;-75
2023/03/17 05:31:35;;;;;;;3.10;2.67;;;;;;;6.84;70.06;100757.81;6217522;23;20017;-75
2023/03/17 05:34:02;;;;;;;3.20;2.50;;;;;;;6.81;70.18;100750.72;6218504;22;20495;-75
2023/03/17 05:36:28;;;;;;;3.50;2.67;;;;;;;6.81;70.33;100756.00;6218102;22;20542;-75
2023/03/17 05:38:55;;;;;;;3.05;2.70;;;;;;;6.78;70.42;100751.56;6218360;22;20013;-75
2023/03/17 05:41:22;;;;;;;4.60;2.67;;;;;;;6.78;70.70;100750.81;6217632;23;20018;-75
2023/03/17 05:43:48;;;;;;;3.83;2.60;;;;;;;6.76;70.22;100748.56;6218467;22;20017;-75
2023/03/17 05:46:15;;;;;;;6.28;2.72;;;;;;;6.75;70.66;100754.28;6217213;22;20021;-75
2023/03/17 05:48:45;;;;;;;2.65;2.45;;;;;;;6.73;70.63;100743.38;6217811;23;20024;-75
2023/03/17 05:51:12;;;;;;;2.33;2.17;;;;;;;6.73;70.61;100727.50;6217203;22;20395;-75
2023/03/17 05:53:39;;;;;;;2.90;2.60;;;;;;;6.72;70.56;100715.41;6218251;22;20025;-76
2023/03/17 05:56:06;;;;;;;2.90;2.58;;;;;;;6.73;70.72;100714.25;6216312;23;20036;-76
2023/03/17 05:58:32;;;;;;;2.83;2.63;;;;;;;6.75;70.56;100723.28;6218133;22;20017;-76
2023/03/17 06:01:01;;;;;;;5.75;2.83;;;;;;;6.78;70.40;100717.16;6216601;23;20021;-75
2023/03/17 06:03:27;;;;;;;2.40;2.30;;;;;;;6.82;70.09;100706.47;6190293;23;20470;-75
2023/03/17 06:05:54;;;;;;;2.33;2.13;;;;;;;6.86;70.32;100729.03;6218627;23;20028;-75
2023/03/17 06:08:20;;;;;;;2.70;2.50;;;;;;;6.87;70.31;100725.25;6216082;23;20013;-76
2023/03/17 06:10:47;;;;;;;3.08;2.75;;;;;;;6.88;70.30;100726.72;6218941;23;20337;-76
2023/03/17 06:13:14;;;;;;;8.32;2.72;;;;;;;6.89;70.55;100732.78;6219249;22;20332;-76
2023/03/17 06:15:43;;;;;;;2.58;2.38;;;;;;;6.90;70.36;100734.25;6220009;23;20382;-75
2023/03/17 06:18:10;;;;;;;8.63;2.78;;;;;;;6.93;70.08;100723.59;6219206;23;20105;-75
2023/03/17 06:20:36;;;;;;;5.30;2.22;;;;;;;6.95;69.89;100721.28;6218278;23;20017;-75
2023/03/17 06:23:03;;;;;;;3.38;2.28;;;;;;;6.98;69.83;100733.69;6219756;22;20028;-74
2023/03/17 06:25:33;;;;;;;5.63;2.67;;;;;;;7.03;69.87;100727.91;6219291;23;20100;-75
2023/03/17 06:28:02;;;;;;;3.10;2.35;;;;;;;7.07;69.70;100729.72;6219899;23;20135;-74
2023/03/17 06:30:30;;;;;;;2.75;2.35;;;;;;;7.10;69.46;100742.13;6216688;23;20088;-75
2023/03/17 06:32:56;;;;;;;2.88;2.60;;;;;;;7.10;69.80;100734.94;6219807;22;20028;-75
2023/03/17 06:35:24;;;;;;;2.78;2.53;;;;;;;7.10;69.78;100739.47;6217221;23;20380;-75
2023/03/17 06:37:50;;;;;;;8.05;2.75;;;;;;;7.10;69.79;100737.56;6219912;22;20437;-75
2023/03/17 06:40:17;;;;;;;2.67;2.50;;;;;;;7.13;69.55;100744.69;6218831;22;20072;-74
2023/03/17 06:42:43;;;;;;;8.18;2.67;;;;;;;7.18;69.46;100754.03;6219758;22;20017;-74
2023/03/17 06:45:13;;;;;;;2.70;2.50;;;;;;;7.22;69.35;100757.31;6218166;22;20076;-74
2023/03/17 06:47:39;;;;;;;2.60;2.42;;;;;;;7.34;69.27;100754.00;6219426;22;20013;-74
2023/03/17 06:50:08;;;;;;;3.63;2.75;;;;;;;7.92;67.91;100768.03;6217631;23;20068;-74
2023/03/17 06:52:35;;;;;;;3.15;2.58;;;;;;;8.30;66.08;100762.81;6218141;23;20033;-75
2023/03/17 06:55:03;;;;;;;2.83;2.30;;;;;;;8.27;65.85;100753.03;6218658;23;20013;-74
2023/03/17 06:57:30;;;;;;;3.15;2.70;;;;;;;8.19;65.88;100753.66;6220149;23;20024;-76
2023/03/17 06:59:57;;;;;;;8.45;2.80;;;;;;;8.14;66.21;100748.88;6219737;22;20377;-77
2023/03/17 07:02:25;;;;;;;7.63;3.08;;;;;;;8.05;66.38;100760.09;6193098;23;20079;-78
2023/03/17 07:04:52;;;;;;;3.05;2.75;;;;;;;7.96;66.81;100766.03;6217722;22;20021;-75
2023/03/17 07:07:19;;;;;;;5.47;3.25;;;;;;;7.94;67.23;100754.34;6217469;22;20013;-76
2023/03/17 07:09:46;;;;;;;4.03;2.58;;;;;;;7.97;67.18;100754.25;6218143;22;20463;-75
2023/03/17 07:12:13;;;;;;;3.30;3.00;;;;;;;7.96;67.19;100754.69;6217740;22;20427;-76
2023/03/17 07:14:40;;;;;;;3.28;3.03;;;;;;;7.95;66.95;100750.53;6217782;23;20021;-75
2023/03/17 07:17:11;;;;;;;4.88;3.20;;;;;;;7.96;67.57;100744.81;6220402;22;20037;-75
2023/03/17 07:19:38;;;;;;;5.95;3.40;;;;;;;8.00;67.57;100750.00;6218938;23;20036;-75
2023/03/17 07:22:06;;;;;;;7.00;3.38;;;;;;;8.04;67.54;100750.63;6220036;22;20021;-76
2023/03/17 07:24:32;;;;;;;4.32;3.00;;;;;;;8.10;67.31;100745.56;6219999;22;20084;-75
2023/03/17 07:26:59;;;;;;;4.05;3.00;;;;;;;8.10;67.20;100751.63;6220378;22;20399;-77
2023/03/17 07:29:27;;;;;;;3.28;2.97;;;;;;;8.13;67.50;100748.13;6219429;22;20072;-76
2023/03/17 07:31:53;;;;;;;3.70;2.95;;;;;;;8.19;67.09;100738.47;6220557;22;20064;-77
2023/03/17 07:34:21;;;;;;;3.92;3.35;;;;;;;8.26;67.30;100738.28;6219978;22;20013;-76
2023/03/17 07:36:47;;;;;;;3.47;3.10;;;;;;;8.34;66.93;100746.81;6220343;23;20153;-78
2023/03/17 07:39:14;;;;;;;5.15;3.28;;;;;;;8.44;66.94;100758.25;6218104;23;20021;-78
2023/03/17 07:41:41;;;;;;;3.72;2.95;;;;;;;8.50;66.71;100757.31;6220104;22;20402;-76
2023/03/17 07:44:10;;;;;;;4.00;3.53;;;;;;;8.54;66.64;100757.94;6217501;23;20391;-76
2023/03/17 07:46:37;;;;;;;4.05;3.65;;;;;;;8.61;66.96;100757.75;6219921;22;20016;-77
2023/03/17 07:49:04;;;;;;;4.53;3.30;;;;;;;8.69;66.27;100752.97;6220182;22;20064;-77
2023/03/17 07:51:30;;;;;;;3.75;3.45;;;;;;;8.71;65.89;100755.19;6219812;22;20110;-76
2023/03/17 07:54:02;;;;;;;3.75;3.45;;;;;;;8.74;65.30;100754.34;6220105;23;20013;-77
2023/03/17 07:56:29;;;;;;;3.92;3.45;;;;;;;8.80;65.67;100757.94;6219966;22;20017;-78
2023/03/17 07:58:57;;;;;;;5.70;3.92;;;;;;;8.84;65.82;100751.34;6219420;22;20482;-76
2023/03/17 08:01:25;;;;;;;4.25;3.58;;;;;;;8.90;65.59;100765.56;6219750;22;20017;-76
2023/03/17 08:03:52;;;;;;;3.63;3.30;;;;;;;8.95;65.88;100766.94;6220234;22;20013;-76
2023/03/17 08:06:20;;;;;;;7.07;3.53;;;;;;;9.07;65.28;100752.19;6219637;22;20100;-74
2023/03/17 08:08:47;;;;;;;4.70;3.47;;;;;;;9.14;65.16;100749.31;6219671;22;20017;-74
2023/03/17 08:11:13;;;;;;;6.25;3.88;;;;;;;9.27;65.02;100742.75;6219772;22;20017;-73
2023/03/17 08:13:41;;;;;;;6.05;3.90;;;;;;;9.40;65.75;100744.66;6219556;23;20076;-74
2023/03/17 08:16:08;;;;;;;4.68;3.42;;;;;;;9.51;64.74;100734.41;6220338;22;20013;-73
2023/03/17 08:18:35;;;;;;;6.47;3.30;;;;;;;9.63;64.47;100744.22;6220040;22;20104;-74
2023/03/17 08:21:02;;;;;;;5.15;3.25;;;;;;;9.69;64.21;100742.50;6219712;22;20025;-74
2023/03/17 08:23:32;;;;;;;4.10;3.58;;;;;;;9.85;63.89;100738.91;6219719;22;20060;-74
2023/03/17 08:26:00;;;;;;;4.60;3.47;;;;;;;10.00;63.92;100742.53;6219875;22;20132;-74
2023/03/17 08:28:28;;;;;;;3.80;3.15;;;;;;;10.16;63.60;100741.59;6218839;22;20017;-74
2023/03/17 08:31:05;;;;;;;5.47;3.58;;;;;;;10.27;63.43;100734.75;6219997;22;20050;-73
2023/03/17 08:33:34;;;;;;;4.10;3.17;;;;;;;10.34;62.64;100739.06;6219214;22;20013;-74
2023/03/17 08:36:05;;;;;;;4.70;3.70;;;;;;;10.47;62.95;100741.59;6219873;22;20017;-74
2023/03/17 08:38:32;;;;;;;4.27;3.50;;;;;;;10.61;63.16;100741.81;6219626;22;20029;-74
2023/03/17 08:41:02;;;;;;;8.48;3.60;;;;;;;10.76;62.36;100736.69;6219320;22;20845;-74
2023/03/17 08:43:28;;;;;;;8.25;3.28;;;;;;;10.90;61.43;100738.78;6219440;22;20226;-74
2023/03/17 08:46:01;;;;;;;3.13;2.90;;;;;;;11.02;61.73;100747.84;6219429;22;20021;-74
2023/03/17 08:48:29;;;;;;;4.25;3.92;;;;;;;11.13;61.61;100755.41;6217820;23;20104;-73
2023/03/17 08:50:56;;;;;;;12.45;3.63;;;;;;;11.26;61.16;100748.75;6219705;22;20024;-74
2023/03/17 08:53:23;;;;;;;4.45;3.80;;;;;;;11.36;61.10;100750.22;6219483;23;20174;-74
2023/03/17 08:55:49;;;;;;;4.80;3.92;;;;;;;11.46;60.62;100748.31;6219307;22;20009;-74
2023/03/17 08:58:16;;;;;;;4.20;3.80;;;;;;;11.57;60.15;100743.28;6219432;23;20044;-75
2023/03/17 09:00:42;;;;;;;5.82;3.50;;;;;;;11.62;59.63;100741.91;6219908;22;20052;-76
2023/03/17 09:03:09;;;;;;;4.13;3.17;;;;;;;11.68;60.77;100748.13;6219340;22;20466;-75
2023/03/17 09:05:36;;;;;;;7.30;3.20;;;;;;;11.77;59.36;100750.81;6217934;23;20021;-74
2023/03/17 09:08:04;;;;;;;9.48;3.72;;;;;;;11.82;59.05;100752.91;6217960;23;20017;-74
2023/03/17 09:10:31;;;;;;;7.65;3.95;;;;;;;11.85;59.29;100744.00;6218809;22;20017;-74
2023/03/17 09:13:01;;;;;;;4.60;3.75;;;;;;;11.99;58.52;100743.38;6219825;22;20013;-73
2023/03/17 09:15:35;;;;;;;3.75;3.33;;;;;;;12.12;59.29;100743.19;6218045;23;20316;-75
2023/03/17 09:18:02;;;;;;;4.97;3.70;;;;;;;12.23;58.88;100740.06;6219816;22;20024;-75
2023/03/17 09:20:29;;;;;;;4.05;3.45;;;;;;;12.38;57.99;100740.16;6219639;22;20024;-73
2023/03/17 09:22:56;;;;;;;3.72;3.25;;;;;;;12.42;58.29;100740.69;6219893;23;20019;-75
2023/03/17 09:25:23;;;;;;;5.93;3.80;;;;;;;12.49;58.00;100753.72;6218752;23;20028;-74
2023/03/17 09:27:50;;;;;;;5.88;3.58;;;;;;;12.54;57.90;100753.84;6219944;22;20017;-74
2023/03/17 09:30:17;;;;;;;4.05;3.72;;;;;;;12.57;57.89;100750.28;6219450;22;20021;-74
2023/03/17 09:32:47;;;;;;;5.18;3.65;;;;;;;12.60;57.77;100751.31;6218150;23;20048;-74
2023/03/17 09:35:13;;;;;;;6.10;3.78;;;;;;;12.59;58.41;100753.25;6219584;22;20168;-74
2023/03/17 09:37:40;;;;;;;7.88;4.00;;;;;;;12.68;57.23;100755.13;6217663;23;20040;-74
2023/03/17 09:40:15;;;;;;;5.28;4.03;;;;;;;12.78;57.49;100756.56;6219023;22;20021;-74
2023/03/17 09:42:59;;;;;;;3.95;3.55;;;;;;;12.86;58.19;100763.03;6219696;22;20538;-74
2023/03/17 09:45:32;;;;;;;4.50;4.00;;;;;;;12.93;57.84;100765.38;6220061;23;20023;-74
2023/03/17 09:48:07;;;;;;;4.97;3.88;;;;;;;13.02;56.89;100768.00;6221060;22;20462;-74
2023/03/17 09:50:45;;;;;;;5.82;4.18;;;;;;;13.03;57.19;100769.47;6219346;23;20017;-76
2023/03/17 09:53:45;;;;;;;4.70;3.58;;;;;;;13.13;57.32;100762.16;6220551;22;20036;-75
2023/03/17 09:56:15;;;;;;;7.10;4.32;;;;;;;13.27;57.62;100768.75;6194713;22;20056;-74
2023/03/17 09:58:49;;;;;;;8.80;4.25;;;;;;;13.37;56.75;100761.41;6220551;23;20061;-74
2023/03/17 10:01:17;;;;;;;5.97;4.10;;;;;;;13.35;57.04;100764.53;6219075;23;20021;-74
2023/03/17 10:03:45;;;;;;;4.80;4.32;;;;;;;13.49;56.66;100771.84;6220668;22;20451;-74
2023/03/17 10:06:18;;;;;;;4.90;3.70;;;;;;;13.67;57.30;100760.97;6220329;22;20021;-74
2023/03/17 10:08:52;;;;;;;9.48;4.40;;;;;;;13.62;56.53;100769.66;6218113;23;20017;-74
2023/03/17 10:11:31;;;;;;;4.75;3.85;;;;;;;13.59;56.68;100764.50;6220190;22;20076;-74
2023/03/17 10:14:17;;;;;;;5.32;4.32;;;;;;;13.53;56.96;100775.09;6220584;23;20048;-74
2023/03/17 10:16:47;;;;;;;4.47;4.03;;;;;;;13.50;56.65;100773.34;6220941;22;20017;-73
2023/03/17 10:19:29;;;;;;;5.13;4.05;;;;;;;13.51;57.18;100771.41;6220295;22;20087;-74
2023/03/17 10:21:59;;;;;;;;;;;;;;;13.47;58.50;100776.91;6221199;22;20021;-74
2023/03/17 10:24:30;;;;;;;6.18;3.92;;;;;;;13.42;57.33;100774.13;6219895;22;19955;-73
2023/03/17 10:27:01;;;;;;;5.20;3.75;;;;;;;13.45;57.61;100781.25;6220299;22;20021;-74
2023/03/17 10:29:30;;;;;;;4.50;4.00;;;;;;;13.54;58.23;100791.88;6220436;22;20615;-74
2023/03/17 10:31:57;;;;;;;4.75;3.95;;;;;;;13.75;57.35;100790.06;6218820;23;20391;-74
2023/03/17 10:34:28;;;;;;;6.90;4.10;;;;;;;13.98;56.25;100798.03;6220170;22;20347;-74
2023/03/17 10:37:07;;;;;;;6.72;4.32;;;;;;;14.13;56.41;100803.34;6220049;22;20017;-74
2023/03/17 10:39:47;;;;;;;7.57;4.53;;;;;;;14.06;56.47;100802.97;6219003;23;20024;-76
2023/03/17 10:42:29;;;;;;;11.23;4.70;;;;;;;14.14;56.56;100798.75;6220045;22;20117;-76
2023/03/17 10:44:58;;;;;;;4.57;4.15;;;;;;;14.21;56.43;100817.13;6219904;22;20436;-76
2023/03/17 10:47:37;;;;;;;4.43;4.03;;;;;;;14.32;57.62;100823.41;6219451;22;20404;-75
2023/03/17 10:50:15;;;;;;;6.53;4.30;;;;;;;14.43;56.57;100819.44;6218828;23;20497;-74
2023/03/17 10:52:46;;;;;;;6.40;4.10;;;;;;;14.47;55.75;100809.25;6219630;23;20017;-74
2023/03/17 10:55:20;;;;;;;9.43;4.03;;;;;;;14.60;55.81;100807.03;6220224;22;20013;-75
2023/03/17 10:58:14;;;;;;;4.50;3.83;;;;;;;14.90;56.48;100802.31;6220257;22;20045;-74
2023/03/17 11:00:54;;;;;;;4.43;3.80;;;;;;;15.11;55.49;100795.06;6220373;23;20048;-73
2023/03/17 11:03:24;;;;;;;4.47;4.05;;;;;;;15.19;55.24;100793.44;6219562;22;20222;-74
2023/03/17 11:06:03;;;;;;;4.78;4.25;;;;;;;15.12;54.80;100791.16;6220079;22;20099;-74
2023/03/17 11:08:44;;;;;;;4.07;3.67;;;;;;;15.13;55.44;100782.66;6220286;22;20013;-75
2023/03/17 11:11:28;;;;;;;6.57;4.05;;;;;;;15.11;55.51;100784.31;6220367;22;20395;-74
2023/03/17 11:14:03;;;;;;;4.72;4.22;;;;;;;15.10;55.57;100775.53;6220370;22;20028;-73
2023/03/17 11:16:36;;;;;;;4.32;4.00;;;;;;;15.14;55.65;100778.78;6221002;22;20017;-74
2023/03/17 11:19:07;;;;;;;5.30;3.72;;;;;;;15.26;55.80;100776.94;6220399;22;20013;-75
2023/03/17 11:21:45;;;;;;;4.82;4.03;;;;;;;15.34;56.33;100776.06;6218340;23;20041;-74
2023/03/17 11:24:18;;;;;;;4.68;4.05;;;;;;;15.31;55.29;100774.31;6219884;23;20448;-74
2023/03/17 11:26:55;;;;;;;7.72;4.40;;;;;;;15.34;55.91;100776.06;6220552;22;20048;-74
2023/03/17 11:29:43;;;;;;;7.70;4.20;;;;;;;15.42;56.46;100771.03;6220061;22;20083;-74
2023/03/17 11:32:23;;;;;;;5.10;4.57;;;;;;;15.53;55.99;100757.72;6219849;23;20013;-74
2023/03/17 11:34:50;;;;;;;12.45;4.35;;;;;;;15.52;55.46;100747.47;6218275;23;20025;-74
2023/03/17 11:37:28;;;;;;;5.68;3.97;;;;;;;15.63;55.26;100751.00;6220106;22;20017;-74
2023/03/17 11:40:06;;;;;;;4.63;4.20;;;;;;;15.71;55.68;100745.97;6220578;22;20041;-74
2023/03/17 11:43:04;;;;;;;6.00;4.30;;;;;;;15.85;55.80;100750.50;6220053;22;20042;-74